| time (UTC) | temp F | wind direction | speed knots | gust knots | rain 1hr in | rain 24hr in | rain mn in | humidity % | barometer mb |
| 20260508011538 | 50 | 298 | 1.7 | 3.5 | 0.00 | 0.01 | 0.01 | 52 | 1014.3 |
| 20260508010036 | 50 | 298 | 1.7 | 4.3 | 0.00 | 0.01 | 0.01 | 51 | 1014.1 |
| 20260508004540 | 51 | 298 | 1.7 | 7.0 | 0.00 | 0.02 | 0.01 | 49 | 1014.1 |
| 20260508003037 | 52 | 297 | 1.7 | 7.0 | 0.00 | 0.02 | 0.01 | 49 | 1013.8 |
| 20260508001535 | 53 | 298 | 2.6 | 7.0 | 0.00 | 0.02 | 0.01 | 47 | 1013.6 |
| 20260508000034 | 54 | 295 | 4.3 | 11.3 | 0.00 | 0.02 | 0.01 | 44 | 1013.4 |
| 20260507234534 | 54 | 285 | 4.3 | 8.7 | 0.00 | 0.03 | 0.01 | 45 | 1013.2 |
| 20260507233037 | 55 | 298 | 4.3 | 9.6 | 0.00 | 0.03 | 0.01 | 44 | 1013.1 |
| 20260507231531 | 56 | 263 | 6.1 | 8.7 | 0.00 | 0.03 | 0.01 | 44 | 1012.7 |
| 20260507230031 | 55 | 284 | 3.5 | 8.7 | 0.00 | 0.03 | 0.01 | 45 | 1012.8 |
| 20260507224535 | 55 | 306 | 5.2 | 8.7 | 0.00 | 0.03 | 0.01 | 45 | 1012.7 |
| 20260507223030 | 56 | 303 | 6.1 | 10.4 | 0.00 | 0.03 | 0.01 | 45 | 1012.8 |
| 20260507221533 | 55 | 295 | 5.2 | 8.7 | 0.00 | 0.03 | 0.01 | 46 | 1012.7 |
| 20260507220030 | 55 | 281 | 2.6 | 10.4 | 0.00 | 0.03 | 0.01 | 47 | 1012.5 |
| 20260507214530 | 56 | 292 | 3.5 | 9.6 | 0.00 | 0.03 | 0.01 | 47 | 1012.3 |
| 20260507213028 | 57 | 310 | 5.2 | 13.0 | 0.00 | 0.03 | 0.01 | 47 | 1012.2 |
| 20260507211528 | 56 | 285 | 7.0 | 12.2 | 0.00 | 0.03 | 0.01 | 47 | 1012.1 |
| 20260507210038 | 55 | 317 | 5.2 | 10.4 | 0.00 | 0.03 | 0.01 | 48 | 1012.2 |
| 20260507204526 | 55 | 318 | 5.2 | 9.6 | 0.00 | 0.03 | 0.01 | 48 | 1012.1 |
| 20260507203026 | 56 | 281 | 5.2 | 12.2 | 0.00 | 0.03 | 0.01 | 49 | 1012.2 |
| 20260507201525 | 57 | 300 | 6.1 | 12.2 | 0.00 | 0.03 | 0.01 | 48 | 1012.2 |
| 20260507200026 | 57 | 304 | 5.2 | 12.2 | 0.00 | 0.03 | 0.01 | 52 | 1012.3 |
| 20260507194521 | 56 | 238 | 7.8 | 16.5 | 0.00 | 0.03 | 0.01 | 50 | 1012.5 |
| 20260507193019 | 55 | 301 | 4.3 | 10.4 | 0.00 | 0.03 | 0.01 | 53 | 1012.8 |
| 20260507191518 | 56 | 292 | 6.1 | 13.0 | 0.00 | 0.03 | 0.01 | 51 | 1012.7 |
| 20260507190017 | 56 | 316 | 6.1 | 11.3 | 0.00 | 0.03 | 0.01 | 50 | 1012.6 |
| 20260507184517 | 55 | 282 | 7.0 | 13.0 | 0.00 | 0.03 | 0.01 | 50 | 1012.8 |
| 20260507183011 | 56 | 253 | 5.2 | 11.3 | 0.00 | 0.03 | 0.01 | 49 | 1012.9 |
| 20260507181508 | 55 | 284 | 7.0 | 13.0 | 0.00 | 0.03 | 0.01 | 50 | 1012.9 |
| 20260507180006 | 55 | 314 | 5.2 | 11.3 | 0.00 | 0.03 | 0.01 | 55 | 1012.9 |
| 20260507174502 | 53 | 284 | 4.3 | 9.6 | 0.01 | 0.06 | 0.01 | 51 | 1013.1 |
| 20260507173100 | 54 | 306 | 2.6 | 10.4 | 0.01 | 0.06 | 0.01 | 55 | 1013.3 |
| 20260507171603 | 53 | 298 | 5.2 | 10.4 | 0.01 | 0.06 | 0.01 | 55 | 1013.6 |
| 20260507170057 | 53 | 338 | 3.5 | 12.2 | 0.01 | 0.06 | 0.01 | 56 | 1013.8 |
| 20260507164605 | 52 | 323 | 1.7 | 9.6 | 0.00 | 0.07 | 0.00 | 57 | 1013.7 |
| 20260507163053 | 52 | 321 | 4.3 | 8.7 | 0.00 | 0.07 | 0.00 | 58 | 1013.9 |
| 20260507161554 | 53 | 295 | 3.5 | 9.6 | 0.00 | 0.07 | 0.00 | 57 | 1014.2 |
| 20260507160053 | 52 | 325 | 2.6 | 7.8 | 0.00 | 0.07 | 0.00 | 59 | 1014.2 |
| 20260507154554 | 52 | 295 | 3.5 | 7.8 | 0.00 | 0.09 | 0.00 | 59 | 1014.2 |
| 20260507153047 | 51 | 254 | 0.0 | 0.0 | 0.00 | 0.09 | 0.00 | 58 | 1014.3 |
| 20260507151546 | 51 | 205 | 0.0 | 0.0 | 0.00 | 0.09 | 0.00 | 62 | 1014.4 |
| 20260507150043 | 50 | 300 | 0.0 | 0.0 | 0.00 | 0.09 | 0.00 | 60 | 1014.5 |
| 20260507144542 | 50 | 327 | 0.0 | 0.0 | 0.00 | 0.09 | 0.00 | 61 | 1014.7 |
| 20260507143041 | 50 | 326 | 0.0 | 0.0 | 0.00 | 0.09 | 0.00 | 62 | 1014.9 |
| 20260507141542 | 50 | 337 | 0.0 | 0.0 | 0.00 | 0.09 | 0.00 | 64 | 1015.0 |
| 20260507140038 | 49 | 321 | 0.0 | 0.0 | 0.00 | 0.09 | 0.00 | 68 | 1015.3 |
| 20260507134538 | 48 | 22 | 0.9 | 7.8 | 0.00 | 0.09 | 0.00 | 66 | 1015.4 |
| 20260507133035 | 48 | 29 | 0.0 | 0.0 | 0.00 | 0.09 | 0.00 | 70 | 1015.4 |
| 20260507131531 | 48 | 29 | 0.0 | 0.0 | 0.00 | 0.09 | 0.00 | 74 | 1015.6 |
| 20260507130037 | 47 | 29 | 0.0 | 0.0 | 0.00 | 0.09 | 0.00 | 77 | 1015.6 |
| 20260507124529 | 46 | 29 | 0.0 | 0.0 | 0.00 | 0.13 | 0.00 | 80 | 1015.5 |
| 20260507123025 | 45 | 29 | 0.0 | 0.0 | 0.00 | 0.13 | 0.00 | 83 | 1015.8 |
| 20260507121524 | 44 | 29 | 0.0 | 0.0 | 0.00 | 0.13 | 0.00 | 84 | 1015.7 |
| 20260507120024 | 43 | 29 | 0.0 | 0.0 | 0.00 | 0.13 | 0.00 | 84 | 1015.5 |
| 20260507114521 | 42 | 29 | 0.0 | 0.0 | 0.00 | 0.20 | 0.00 | 84 | 1015.4 |
| 20260507113019 | 42 | 29 | 0.0 | 0.0 | 0.00 | 0.20 | 0.00 | 84 | 1015.2 |
| 20260507111518 | 41 | 5 | 0.0 | 0.0 | 0.00 | 0.20 | 0.00 | 84 | 1015.1 |
| 20260507110017 | 42 | 5 | 0.0 | 0.0 | 0.00 | 0.20 | 0.00 | 84 | 1015.0 |
| 20260507104515 | 42 | 5 | 0.0 | 0.0 | 0.00 | 0.35 | 0.00 | 84 | 1014.9 |
| 20260507103025 | 42 | 18 | 0.0 | 0.0 | 0.00 | 0.35 | 0.00 | 84 | 1014.6 |
| 20260507101512 | 42 | 18 | 0.0 | 0.0 | 0.00 | 0.35 | 0.00 | 84 | 1014.5 |
| 20260507100011 | 43 | 18 | 0.0 | 0.0 | 0.00 | 0.35 | 0.00 | 84 | 1014.5 |
| 20260507094511 | 43 | 18 | 0.0 | 0.0 | 0.00 | 0.57 | 0.00 | 84 | 1014.3 |
| 20260507093007 | 43 | 18 | 0.0 | 0.0 | 0.00 | 0.57 | 0.00 | 84 | 1014.3 |
| 20260507091507 | 43 | 18 | 0.0 | 0.0 | 0.00 | 0.57 | 0.00 | 84 | 1014.2 |
| 20260507090006 | 44 | 18 | 0.0 | 0.0 | 0.00 | 0.57 | 0.00 | 84 | 1014.1 |
| 20260507084504 | 44 | 18 | 0.0 | 0.0 | 0.00 | 0.63 | 0.00 | 84 | 1014.0 |
| 20260507083002 | 45 | 18 | 0.0 | 0.0 | 0.00 | 0.63 | 0.00 | 84 | 1014.2 |
| 20260507081502 | 45 | 18 | 0.0 | 0.0 | 0.00 | 0.63 | 0.00 | 84 | 1014.1 |
| 20260507080116 | 45 | 18 | 0.0 | 0.0 | 0.00 | 0.63 | 0.00 | 84 | 1014.0 |
| 20260507074559 | 45 | 18 | 0.0 | 0.0 | 0.00 | 0.63 | 0.00 | 84 | 1014.0 |
| 20260507073058 | 46 | 18 | 0.0 | 0.0 | 0.00 | 0.63 | 0.00 | 84 | 1014.0 |
| 20260507071610 | 46 | 18 | 0.0 | 0.0 | 0.00 | 0.63 | 0.00 | 84 | 1013.9 |
| 20260507070057 | 46 | 18 | 0.0 | 0.0 | 0.00 | 0.63 | 0.00 | 84 | 1013.8 |
| 20260507064555 | 46 | 18 | 0.0 | 0.0 | 0.00 | 0.63 | 0.00 | 84 | 1013.8 |
| 20260507063056 | 46 | 18 | 0.0 | 0.0 | 0.00 | 0.63 | 0.00 | 84 | 1013.7 |
| 20260507061558 | 46 | 18 | 0.0 | 0.0 | 0.00 | 0.63 | 0.00 | 84 | 1013.7 |
| 20260507060057 | 47 | 18 | 0.0 | 0.0 | 0.00 | 0.63 | 0.00 | 84 | 1013.9 |
| 20260507054549 | 48 | 62 | 0.0 | 0.0 | 0.00 | 0.63 | 0.00 | 84 | 1013.9 |
| 20260507053115 | 47 | 62 | 0.0 | 0.0 | 0.00 | 0.63 | 0.00 | 84 | 1014.2 |
| 20260507051552 | 47 | 62 | 0.0 | 0.0 | 0.00 | 0.63 | 0.00 | 84 | 1014.3 |
| 20260507050047 | 47 | 62 | 0.0 | 0.0 | 0.00 | 0.63 | 0.00 | 84 | 1014.4 |
| 20260507044546 | 47 | 62 | 0.0 | 0.0 | 0.00 | 0.63 | 0.00 | 84 | 1014.2 |
| 20260507043041 | 48 | 62 | 0.0 | 0.0 | 0.00 | 0.63 | 0.00 | 84 | 1014.3 |
| 20260507041538 | 48 | 62 | 0.0 | 0.0 | 0.00 | 0.63 | 0.00 | 84 | 1014.2 |
| 20260507040033 | 48 | 62 | 0.0 | 0.0 | 0.00 | 0.63 | 0.00 | 84 | 1014.0 |
| 20260507034537 | 48 | 62 | 0.0 | 0.0 | 0.00 | 0.63 | 0.63 | 84 | 1013.9 |
| 20260507033040 | 48 | 62 | 0.0 | 0.0 | 0.00 | 0.63 | 0.63 | 84 | 1013.7 |
| 20260507031531 | 48 | 62 | 0.0 | 0.0 | 0.00 | 0.63 | 0.63 | 84 | 1014.3 |
| 20260507030031 | 48 | 62 | 0.0 | 0.0 | 0.00 | 0.63 | 0.63 | 84 | 1014.6 |
| 20260507024533 | 48 | 62 | 0.0 | 0.0 | 0.00 | 0.63 | 0.63 | 84 | 1013.9 |
| 20260507023034 | 48 | 62 | 0.0 | 0.0 | 0.00 | 0.63 | 0.63 | 84 | 1013.8 |
| 20260507021528 | 48 | 62 | 0.0 | 0.0 | 0.00 | 0.63 | 0.63 | 84 | 1013.9 |
| 20260507020026 | 48 | 62 | 0.0 | 0.0 | 0.00 | 0.63 | 0.63 | 84 | 1013.5 |
| 20260507014525 | 48 | 62 | 0.0 | 0.0 | 0.00 | 0.63 | 0.63 | 84 | 1013.4 |
| 20260507013024 | 48 | 62 | 0.0 | 0.0 | 0.00 | 0.63 | 0.63 | 84 | 1013.0 |